createdAt,value
2023-02-09T00:01:30.244Z,103117.59
2023-02-09T00:03:59.285Z,103116.13
2023-02-09T00:06:29.856Z,103112.63
2023-02-09T00:08:59.684Z,103111.41
2023-02-09T00:11:49.003Z,103122.53
2023-02-09T00:14:21.521Z,103124.31
2023-02-09T00:16:49.671Z,103125.06
2023-02-09T00:19:18.226Z,103119.88
2023-02-09T00:21:45.228Z,103125.06
2023-02-09T00:24:13.441Z,103126.94
2023-02-09T00:26:41.715Z,103134.22
2023-02-09T00:29:09.525Z,103138.50
2023-02-09T00:31:36.998Z,103133.81
2023-02-09T00:34:04.384Z,103131.34
2023-02-09T00:36:32.111Z,103124.22
2023-02-09T00:38:59.890Z,103132.53
2023-02-09T00:41:45.662Z,103133.81
2023-02-09T00:44:12.876Z,103138.38
2023-02-09T00:46:39.954Z,103128.78
2023-02-09T00:49:07.067Z,103127.13
2023-02-09T00:51:34.158Z,103128.38
2023-02-09T00:54:01.209Z,103135.41
2023-02-09T00:56:28.212Z,103134.94
2023-02-09T00:58:55.200Z,103143.19
2023-02-09T01:01:22.202Z,103140.25
2023-02-09T01:03:49.211Z,103130.44
2023-02-09T01:06:16.205Z,103135.69
2023-02-09T01:08:43.168Z,103132.50
2023-02-09T01:11:13.578Z,103125.78
2023-02-09T01:13:41.819Z,103126.97
2023-02-09T01:16:13.009Z,103134.59
2023-02-09T01:18:40.494Z,103125.63
2023-02-09T01:21:17.506Z,103126.53
2023-02-09T01:23:45.658Z,103119.84
2023-02-09T01:26:14.110Z,103125.44
2023-02-09T01:28:41.794Z,103117.25
2023-02-09T01:31:24.443Z,103119.22
2023-02-09T01:33:53.509Z,103122.13
2023-02-09T01:36:21.082Z,103126.53
2023-02-09T01:38:48.427Z,103118.44
2023-02-09T01:41:15.578Z,103122.56
2023-02-09T01:44:06.015Z,103129.41
2023-02-09T01:46:37.359Z,103128.66
2023-02-09T01:49:13.597Z,103125.28
2023-02-09T01:52:08.984Z,103125.13
2023-02-09T01:54:40.946Z,103118.59
2023-02-09T01:57:20.680Z,103111.72
2023-02-09T01:59:56.316Z,103110.75
2023-02-09T02:02:24.054Z,103108.22
2023-02-09T02:04:52.690Z,103112.22
2023-02-09T02:07:42.404Z,103121.66
2023-02-09T02:10:09.823Z,103124.25
2023-02-09T02:12:37.614Z,103117.72
2023-02-09T02:15:05.445Z,103107.88
2023-02-09T02:18:11.198Z,103100.38
2023-02-09T02:20:49.919Z,103093.69
2023-02-09T02:23:49.230Z,103085.56
2023-02-09T02:26:30.775Z,103095.00
2023-02-09T02:29:24.555Z,103093.75
2023-02-09T02:31:56.956Z,103088.41
2023-02-09T02:34:41.844Z,103090.88
2023-02-09T02:37:23.242Z,103084.66
2023-02-09T02:40:01.703Z,103086.66
2023-02-09T02:42:53.702Z,103088.81
2023-02-09T02:45:38.293Z,103089.75
2023-02-09T02:48:16.622Z,103082.94
2023-02-09T02:50:59.497Z,103079.09
2023-02-09T02:53:31.984Z,103078.13
2023-02-09T02:56:10.668Z,103059.66
2023-02-09T02:58:40.506Z,103068.97
2023-02-09T03:01:13.260Z,103071.53
2023-02-09T03:03:42.528Z,103072.75
2023-02-09T03:06:11.079Z,103065.28
2023-02-09T03:08:56.524Z,103069.88
2023-02-09T03:11:30.504Z,103066.38
2023-02-09T03:14:48.194Z,103049.91
2023-02-09T03:17:52.634Z,103049.63
2023-02-09T03:20:47.208Z,103057.38
2023-02-09T03:23:35.068Z,103068.34
2023-02-09T03:26:14.321Z,103063.47
2023-02-09T03:28:45.685Z,103058.28
2023-02-09T03:31:13.954Z,103048.28
2023-02-09T03:33:41.967Z,103059.25
2023-02-09T03:36:18.699Z,103054.84
2023-02-09T03:38:45.832Z,103048.56
2023-02-09T03:41:12.865Z,103044.16
2023-02-09T03:43:58.728Z,103057.44
2023-02-09T03:46:25.764Z,103048.19
2023-02-09T03:48:52.762Z,103044.50
2023-02-09T03:51:19.704Z,103041.16
2023-02-09T03:53:47.261Z,103032.16
2023-02-09T03:56:14.290Z,103023.97
2023-02-09T03:58:41.303Z,103030.53
2023-02-09T04:01:11.136Z,103031.91
2023-02-09T04:03:39.883Z,103021.44
2023-02-09T04:06:07.065Z,103008.03
2023-02-09T04:08:34.126Z,103009.13
2023-02-09T04:11:01.094Z,103005.34
2023-02-09T04:13:28.498Z,103001.84
2023-02-09T04:15:55.520Z,103003.53
2023-02-09T04:18:22.561Z,102997.47
2023-02-09T04:20:49.538Z,103017.22
2023-02-09T04:23:16.524Z,103022.41
2023-02-09T04:25:43.585Z,103013.41
2023-02-09T04:28:10.704Z,103020.88
2023-02-09T04:30:37.798Z,103026.66
2023-02-09T04:33:04.754Z,103026.78
2023-02-09T04:35:31.704Z,103019.31
2023-02-09T04:37:58.645Z,103021.16
2023-02-09T04:40:25.617Z,103021.50
2023-02-09T04:42:52.577Z,103012.22
2023-02-09T04:45:19.705Z,103009.28
2023-02-09T04:47:46.740Z,103002.34
2023-02-09T04:50:15.026Z,103006.75
2023-02-09T04:52:42.173Z,103008.94
2023-02-09T04:55:17.327Z,103018.81
2023-02-09T04:58:02.786Z,103028.66
2023-02-09T05:00:29.845Z,103027.13
2023-02-09T05:02:56.917Z,103035.19
2023-02-09T05:05:23.912Z,103032.31
2023-02-09T05:07:50.941Z,103037.31
2023-02-09T05:10:18.075Z,103034.88
2023-02-09T05:12:45.106Z,103045.88
2023-02-09T05:15:12.137Z,103044.63
2023-02-09T05:17:39.120Z,103045.97
2023-02-09T05:20:07.890Z,103043.88
2023-02-09T05:22:34.949Z,103053.72
2023-02-09T05:25:01.930Z,103049.03
2023-02-09T05:27:28.901Z,103045.06
2023-02-09T05:29:57.090Z,103051.00
2023-02-09T05:32:24.077Z,103057.09
2023-02-09T05:34:51.220Z,103037.75
2023-02-09T05:37:18.186Z,103031.06
2023-02-09T05:39:45.241Z,103030.63
2023-02-09T05:42:18.165Z,103025.03
2023-02-09T05:44:50.540Z,103023.19
2023-02-09T05:47:20.812Z,103023.50
2023-02-09T05:49:47.981Z,103035.03
2023-02-09T05:52:16.688Z,103034.88
2023-02-09T05:54:44.076Z,103041.97
2023-02-09T05:57:11.139Z,103045.97
2023-02-09T05:59:38.122Z,103044.16
2023-02-09T06:02:05.312Z,103044.31
2023-02-09T06:04:32.428Z,103033.25
2023-02-09T06:06:59.413Z,103043.72
2023-02-09T06:09:26.678Z,103044.06
2023-02-09T06:11:53.679Z,103037.06
2023-02-09T06:14:20.825Z,103045.59
2023-02-09T06:16:48.003Z,103051.47
2023-02-09T06:19:18.346Z,103045.09
2023-02-09T06:21:45.973Z,103051.03
2023-02-09T06:24:14.797Z,103047.22
2023-02-09T06:26:42.246Z,103050.91
2023-02-09T06:29:09.447Z,103062.91
2023-02-09T06:31:36.908Z,103066.97
2023-02-09T06:34:05.803Z,103071.09
2023-02-09T06:36:32.908Z,103073.66
2023-02-09T06:39:00.081Z,103084.47
2023-02-09T06:41:27.091Z,103094.78
2023-02-09T06:43:54.098Z,103092.50
2023-02-09T06:46:21.246Z,103093.28
2023-02-09T06:48:48.257Z,103086.03
2023-02-09T06:51:17.076Z,103075.91
2023-02-09T06:53:44.516Z,103078.97
2023-02-09T06:56:13.344Z,103087.44
2023-02-09T06:58:41.881Z,103089.66
2023-02-09T07:01:13.070Z,103081.19
2023-02-09T07:03:40.036Z,103071.00
2023-02-09T07:06:17.102Z,103079.34
2023-02-09T07:08:45.564Z,103083.31
2023-02-09T07:11:16.543Z,103095.81
2023-02-09T07:13:44.121Z,103093.19
2023-02-09T07:16:12.191Z,103095.78
2023-02-09T07:18:39.648Z,103090.22
2023-02-09T07:21:10.479Z,103099.59
2023-02-09T07:23:39.057Z,103106.28
2023-02-09T07:26:10.592Z,103094.56
2023-02-09T07:28:38.275Z,103099.31
2023-02-09T07:31:09.800Z,103080.47
2023-02-09T07:33:37.641Z,103078.06
2023-02-09T07:36:11.142Z,103077.56
2023-02-09T07:38:38.922Z,103077.81
2023-02-09T07:41:08.333Z,103089.47
2023-02-09T07:43:35.586Z,103078.34
2023-02-09T07:46:05.562Z,103075.03
2023-02-09T07:48:33.684Z,103066.47
2023-02-09T07:51:01.144Z,103064.09
2023-02-09T07:53:28.908Z,103063.34
2023-02-09T07:55:56.036Z,103059.06
2023-02-09T07:58:23.403Z,103057.50
2023-02-09T08:00:51.670Z,103062.00
2023-02-09T08:03:22.686Z,103052.50
2023-02-09T08:06:41.059Z,103054.47
2023-02-09T08:09:10.837Z,103059.06
2023-02-09T08:11:55.905Z,103046.72
2023-02-09T08:14:29.603Z,103041.59
2023-02-09T08:17:20.112Z,103055.00
2023-02-09T08:19:56.088Z,103063.94
2023-02-09T08:22:25.187Z,103063.13
2023-02-09T08:24:53.144Z,103065.91
2023-02-09T08:27:20.165Z,103066.97
2023-02-09T08:29:48.962Z,103065.31
2023-02-09T08:32:16.239Z,103069.72
2023-02-09T08:34:43.419Z,103058.38
2023-02-09T08:37:10.336Z,103046.19
2023-02-09T08:39:37.309Z,103063.03
2023-02-09T08:42:04.359Z,103079.81
2023-02-09T08:44:31.504Z,103088.78
2023-02-09T08:46:58.638Z,103086.22
2023-02-09T08:49:25.844Z,103075.75
2023-02-09T08:51:52.786Z,103076.72
2023-02-09T08:54:20.051Z,103099.59
2023-02-09T08:56:47.058Z,103095.25
2023-02-09T08:59:14.011Z,103099.59
2023-02-09T09:01:42.381Z,103091.84
2023-02-09T09:04:10.046Z,103087.56
2023-02-09T09:06:37.388Z,103090.19
2023-02-09T09:09:04.650Z,103091.19
2023-02-09T09:11:31.926Z,103086.81
2023-02-09T09:13:59.158Z,103091.19
2023-02-09T09:16:26.265Z,103098.28
2023-02-09T09:18:53.270Z,103091.28
2023-02-09T09:21:20.335Z,103094.81
2023-02-09T09:23:48.125Z,103093.00
2023-02-09T09:26:16.738Z,103091.28
2023-02-09T09:28:44.101Z,103088.72
2023-02-09T09:31:16.592Z,103083.47
2023-02-09T09:33:44.970Z,103073.75
2023-02-09T09:36:14.500Z,103084.28
2023-02-09T09:38:41.971Z,103086.09
2023-02-09T09:41:38.323Z,103079.03
2023-02-09T09:44:19.059Z,103091.34
2023-02-09T09:46:51.595Z,103107.31
2023-02-09T09:49:28.248Z,103090.69
2023-02-09T09:52:23.189Z,103091.50
2023-02-09T09:54:51.106Z,103098.59
2023-02-09T09:57:24.430Z,103080.00
2023-02-09T09:59:52.284Z,103065.69
2023-02-09T10:02:31.269Z,103084.19
2023-02-09T10:05:23.973Z,103097.47
2023-02-09T10:08:20.932Z,103095.78
2023-02-09T10:11:15.041Z,103108.13
2023-02-09T10:13:57.279Z,103102.13
2023-02-09T10:16:38.196Z,103110.09
2023-02-09T10:19:16.897Z,103121.53
2023-02-09T10:21:43.868Z,103141.84
2023-02-09T10:24:30.985Z,103139.22
2023-02-09T10:27:21.962Z,103133.03
2023-02-09T10:29:49.030Z,103147.25
2023-02-09T10:32:23.591Z,103153.44
2023-02-09T10:34:57.861Z,103143.81
2023-02-09T10:37:39.596Z,103139.28
2023-02-09T10:40:34.506Z,103140.13
2023-02-09T10:43:05.829Z,103133.03
2023-02-09T10:45:51.362Z,103135.59
2023-02-09T10:48:21.320Z,103141.84
2023-02-09T10:50:52.141Z,103136.66
2023-02-09T10:53:38.478Z,103135.06
2023-02-09T10:56:22.707Z,103148.25
2023-02-09T10:59:02.218Z,103144.78
2023-02-09T11:01:34.503Z,103129.81
2023-02-09T11:04:04.659Z,103141.31
2023-02-09T11:06:58.453Z,103133.25
2023-02-09T11:09:36.355Z,103140.41
2023-02-09T11:12:03.571Z,103141.31
2023-02-09T11:14:30.668Z,103144.84
2023-02-09T11:17:36.430Z,103148.38
2023-02-09T11:20:38.030Z,103146.66
2023-02-09T11:23:29.493Z,103141.31
2023-02-09T11:26:19.563Z,103139.50
2023-02-09T11:29:17.130Z,103139.50
2023-02-09T11:32:08.181Z,103146.50
2023-02-09T11:35:26.455Z,103136.06
2023-02-09T11:38:10.294Z,103127.16
2023-02-09T11:40:47.974Z,103124.63
2023-02-09T11:43:37.629Z,103123.84
2023-02-09T11:46:15.729Z,103130.78
2023-02-09T11:48:52.170Z,103125.50
2023-02-09T11:51:24.569Z,103115.88
2023-02-09T11:54:23.081Z,103132.75
2023-02-09T11:56:55.929Z,103125.75
2023-02-09T11:59:25.452Z,103145.00
2023-02-09T12:02:00.449Z,103148.53
2023-02-09T12:04:58.507Z,103130.09
2023-02-09T12:07:32.815Z,103132.75
2023-02-09T12:10:27.203Z,103130.84
2023-02-09T12:13:20.430Z,103137.78
2023-02-09T12:15:58.029Z,103135.28
2023-02-09T12:18:29.464Z,103140.72
2023-02-09T12:21:05.467Z,103140.63
2023-02-09T12:23:43.984Z,103132.59
2023-02-09T12:26:16.517Z,103143.13
2023-02-09T12:28:47.754Z,103136.19
2023-02-09T12:31:23.214Z,103140.56
2023-02-09T12:33:59.206Z,103143.28
2023-02-09T12:36:29.904Z,103131.84
2023-02-09T12:39:05.067Z,103135.38
2023-02-09T12:41:56.122Z,103133.63
2023-02-09T12:44:22.974Z,103126.78
2023-02-09T12:46:54.685Z,103119.66
2023-02-09T12:49:27.510Z,103115.28
2023-02-09T12:52:13.911Z,103116.03
2023-02-09T12:54:56.837Z,103117.75
2023-02-09T12:57:25.459Z,103109.03
2023-02-09T13:00:03.651Z,103119.56
2023-02-09T13:02:42.632Z,103102.94
2023-02-09T13:05:15.426Z,103103.00
2023-02-09T13:07:56.580Z,103103.69
2023-02-09T13:11:01.897Z,103098.41
2023-02-09T13:13:50.665Z,103099.47
2023-02-09T13:16:29.434Z,103095.88
2023-02-09T13:19:17.876Z,103100.22
2023-02-09T13:22:19.284Z,103115.28
2023-02-09T13:25:35.434Z,103103.00
2023-02-09T13:28:15.263Z,103104.94
2023-02-09T13:30:42.988Z,103096.91
2023-02-09T13:33:50.913Z,103092.72
2023-02-09T13:36:59.569Z,103102.38
2023-02-09T13:39:32.261Z,103102.28
2023-02-09T13:41:59.461Z,103104.09
2023-02-09T13:44:29.954Z,103097.03
2023-02-09T13:47:01.001Z,103089.91
2023-02-09T13:49:29.849Z,103096.19
2023-02-09T13:52:22.177Z,103097.09
2023-02-09T13:54:50.154Z,103101.47
2023-02-09T13:57:39.464Z,103099.81
2023-02-09T14:00:20.063Z,103104.25
2023-02-09T14:03:22.577Z,103106.88
2023-02-09T14:06:38.327Z,103112.16
2023-02-09T14:09:15.585Z,103116.59
2023-02-09T14:12:01.971Z,103121.78
2023-02-09T14:14:53.436Z,103121.78
2023-02-09T14:17:29.952Z,103126.28
2023-02-09T14:19:59.451Z,103124.56
2023-02-09T14:22:39.133Z,103123.66
2023-02-09T14:25:13.105Z,103128.25
2023-02-09T14:27:47.166Z,103124.78
2023-02-09T14:30:25.356Z,103122.97
2023-02-09T14:32:57.951Z,103123.94
2023-02-09T14:35:36.395Z,103123.94
2023-02-09T14:38:04.023Z,103119.44
2023-02-09T14:40:37.002Z,103120.28
2023-02-09T14:43:12.544Z,103122.81
2023-02-09T14:46:00.176Z,103121.94
2023-02-09T14:48:29.842Z,103122.81
2023-02-09T14:51:01.282Z,103121.94
2023-02-09T14:53:31.924Z,103120.13
2023-02-09T14:55:59.344Z,103121.09
2023-02-09T14:58:32.357Z,103128.25
2023-02-09T15:01:01.476Z,103126.38
2023-02-09T15:03:29.099Z,103127.25
2023-02-09T15:06:04.089Z,103132.69
2023-02-09T15:08:37.593Z,103138.94
2023-02-09T15:11:27.432Z,103148.56
2023-02-09T15:14:03.738Z,103147.66
2023-02-09T15:16:31.553Z,103156.53
2023-02-09T15:18:58.637Z,103161.81
2023-02-09T15:21:25.571Z,103158.34
2023-02-09T15:23:52.518Z,103168.06
2023-02-09T15:26:26.753Z,103167.22
2023-02-09T15:28:54.189Z,103165.44
2023-02-09T15:31:21.977Z,103163.53
2023-02-09T15:33:49.136Z,103174.09
2023-02-09T15:36:20.505Z,103178.44
2023-02-09T15:38:48.365Z,103172.28
2023-02-09T15:41:36.138Z,103177.47
2023-02-09T15:44:38.646Z,103187.09
2023-02-09T15:47:24.589Z,103178.38
2023-02-09T15:49:51.651Z,103189.81
2023-02-09T15:52:19.088Z,103194.19
2023-02-09T15:54:46.259Z,103196.00
2023-02-09T15:57:15.056Z,103197.78
2023-02-09T15:59:42.709Z,103205.78
2023-02-09T16:02:14.732Z,103184.22
2023-02-09T16:04:41.784Z,103196.72
2023-02-09T16:13:19.882Z,103195.72
2023-02-09T16:15:48.050Z,103199.63
2023-02-09T16:18:15.339Z,103208.03
2023-02-09T16:20:50.466Z,103206.31
2023-02-09T16:23:23.028Z,103209.75
2023-02-09T16:25:52.819Z,103211.44
2023-02-09T16:28:21.687Z,103214.75
2023-02-09T16:30:58.213Z,103218.28
2023-02-09T16:33:26.221Z,103221.69
2023-02-09T16:36:12.994Z,103223.28
2023-02-09T16:38:40.075Z,103226.81
2023-02-09T16:41:29.239Z,103237.16
2023-02-09T16:43:56.198Z,103232.75
2023-02-09T16:46:23.297Z,103247.41
2023-02-09T16:48:50.782Z,103252.53
2023-02-09T16:51:19.078Z,103261.97
2023-02-09T16:53:51.571Z,103268.09
2023-02-09T16:56:19.809Z,103265.28
2023-02-09T16:58:48.575Z,103264.25
2023-02-09T17:01:22.614Z,103257.44
2023-02-09T17:03:56.098Z,103265.28
2023-02-09T17:06:27.301Z,103268.47
2023-02-09T17:08:56.606Z,103276.31
2023-02-09T17:11:27.413Z,103278.81
2023-02-09T17:13:54.594Z,103276.09
2023-02-09T17:16:24.558Z,103276.22
2023-02-09T17:18:56.538Z,103283.94
2023-02-09T17:21:34.932Z,103287.91
2023-02-09T17:24:04.196Z,103291.31
2023-02-09T17:26:31.480Z,103289.72
2023-02-09T17:28:58.445Z,103291.31
2023-02-09T17:31:40.990Z,103300.06
2023-02-09T17:34:16.784Z,103298.25
2023-02-09T17:36:44.990Z,103307.78
2023-02-09T17:39:12.418Z,103306.16
2023-02-09T17:41:44.863Z,103301.56
2023-02-09T17:44:29.138Z,103295.09
2023-02-09T17:47:05.917Z,103301.94
2023-02-09T17:49:33.277Z,103299.78
2023-02-09T17:52:00.336Z,103305.06
2023-02-09T17:54:27.914Z,103314.59
2023-02-09T17:56:54.942Z,103317.72
2023-02-09T17:59:21.958Z,103319.09
2023-02-09T18:01:50.300Z,103323.06
2023-02-09T18:04:21.868Z,103329.56
2023-02-09T18:06:49.007Z,103330.78
2023-02-09T18:09:16.137Z,103336.22
2023-02-09T18:11:52.211Z,103337.38
2023-02-09T18:14:22.257Z,103339.38
2023-02-09T18:16:50.484Z,103336.06
2023-02-09T18:19:18.690Z,103337.13
2023-02-09T18:21:53.250Z,103333.75
2023-02-09T18:24:24.058Z,103341.88
2023-02-09T18:26:51.238Z,103344.59
2023-02-09T18:29:22.793Z,103339.47
2023-02-09T18:31:51.123Z,103352.06
2023-02-09T18:34:18.278Z,103352.34
2023-02-09T18:36:45.268Z,103350.84
2023-02-09T18:39:14.374Z,103355.59
2023-02-09T18:41:41.739Z,103356.72
2023-02-09T18:44:08.908Z,103365.97
2023-02-09T18:46:36.253Z,103370.63
2023-02-09T18:49:03.866Z,103366.34
2023-02-09T18:51:31.368Z,103369.88
2023-02-09T18:53:58.933Z,103368.22
2023-02-09T18:56:28.301Z,103375.47
2023-02-09T18:58:55.439Z,103383.44
2023-02-09T19:01:24.271Z,103381.72
2023-02-09T19:03:52.986Z,103372.91
2023-02-09T19:06:21.384Z,103364.91
2023-02-09T19:08:50.497Z,103374.72
2023-02-09T19:11:21.306Z,103380.88
2023-02-09T19:14:07.736Z,103393.31
2023-02-09T19:16:36.741Z,103381.78
2023-02-09T19:19:04.344Z,103390.69
2023-02-09T19:21:32.311Z,103395.88
2023-02-09T19:23:59.428Z,103407.34
2023-02-09T19:26:26.462Z,103409.06
2023-02-09T19:28:55.788Z,103415.25
2023-02-09T19:31:23.059Z,103419.63
2023-02-09T19:33:53.728Z,103427.53
2023-02-09T19:36:22.767Z,103426.72
2023-02-09T19:38:49.735Z,103420.44
2023-02-09T19:41:16.943Z,103432.72
2023-02-09T19:43:44.044Z,103444.19
2023-02-09T19:46:11.192Z,103440.56
2023-02-09T19:48:40.278Z,103423.84
2023-02-09T19:51:08.423Z,103434.38
2023-02-09T19:53:35.609Z,103438.00
2023-02-09T19:56:02.736Z,103438.84
2023-02-09T19:59:03.947Z,103438.91
2023-02-09T20:01:31.615Z,103441.56
2023-02-09T20:03:59.119Z,103439.00
2023-02-09T20:06:26.159Z,103435.53
2023-02-09T20:08:53.106Z,103432.88
2023-02-09T20:11:21.183Z,103428.66
2023-02-09T20:13:52.947Z,103430.47
2023-02-09T20:16:24.803Z,103438.38
2023-02-09T20:18:52.591Z,103441.84
2023-02-09T20:21:22.499Z,103443.59
2023-02-09T20:23:52.965Z,103448.78
2023-02-09T20:26:26.009Z,103447.88
2023-02-09T20:28:54.018Z,103445.16
2023-02-09T20:31:25.250Z,103446.00
2023-02-09T20:33:53.206Z,103440.72
2023-02-09T20:36:20.951Z,103460.00
2023-02-09T20:38:48.366Z,103457.28
2023-02-09T20:41:18.098Z,103460.84
2023-02-09T20:44:03.989Z,103453.69
2023-02-09T20:46:51.794Z,103466.94
2023-02-09T20:49:19.459Z,103452.19
2023-02-09T20:51:47.235Z,103473.50
2023-02-09T20:54:15.254Z,103472.09
2023-02-09T20:56:43.070Z,103476.72
2023-02-09T20:59:11.759Z,103476.25
2023-02-09T21:01:40.094Z,103476.00
2023-02-09T21:04:07.841Z,103475.88
2023-02-09T21:06:38.361Z,103473.84
2023-02-09T21:09:08.102Z,103486.78
2023-02-09T21:11:35.205Z,103492.09
2023-02-09T21:14:02.614Z,103486.09
2023-02-09T21:16:30.914Z,103496.19
2023-02-09T21:18:59.025Z,103491.63
2023-02-09T21:21:27.101Z,103496.31
2023-02-09T21:23:54.884Z,103495.00
2023-02-09T21:26:24.532Z,103485.09
2023-02-09T21:28:56.514Z,103482.56
2023-02-09T21:31:27.375Z,103481.03
2023-02-09T21:33:54.728Z,103469.16
2023-02-09T21:36:21.758Z,103470.13
2023-02-09T21:38:48.816Z,103474.41
2023-02-09T21:41:40.957Z,103483.81
2023-02-09T21:44:12.985Z,103492.31
2023-02-09T21:46:39.950Z,103495.41
2023-02-09T21:49:07.127Z,103503.72
2023-02-09T21:51:35.276Z,103496.88
2023-02-09T21:54:02.205Z,103490.16
2023-02-09T21:56:29.317Z,103497.50
2023-02-09T21:58:56.241Z,103498.59
2023-02-09T22:01:23.411Z,103498.75
2023-02-09T22:03:57.079Z,103500.72
2023-02-09T22:06:25.956Z,103497.34
2023-02-09T22:08:53.561Z,103493.97
2023-02-09T22:11:20.589Z,103506.47
2023-02-09T22:13:47.689Z,103501.28
2023-02-09T22:16:20.567Z,103501.47
2023-02-09T22:18:47.777Z,103499.03
2023-02-09T22:21:14.819Z,103508.81
2023-02-09T22:23:41.990Z,103501.91
2023-02-09T22:26:10.034Z,103505.53
2023-02-09T22:28:37.214Z,103491.53
2023-02-09T22:31:14.460Z,103492.50
2023-02-09T22:33:42.045Z,103491.69
2023-02-09T22:36:17.092Z,103492.59
2023-02-09T22:38:45.082Z,103482.94
2023-02-09T22:41:21.986Z,103494.47
2023-02-09T22:44:02.813Z,103490.13
2023-02-09T22:46:38.981Z,103494.63
2023-02-09T22:49:18.976Z,103490.19
2023-02-09T22:51:48.563Z,103501.66
2023-02-09T22:54:18.707Z,103503.47
2023-02-09T22:56:46.166Z,103505.28
2023-02-09T22:59:14.951Z,103503.53
2023-02-09T23:01:43.330Z,103501.81
2023-02-09T23:04:11.114Z,103496.53
2023-02-09T23:06:38.414Z,103497.44
2023-02-09T23:09:07.622Z,103494.88
2023-02-09T23:11:35.902Z,103503.63
2023-02-09T23:14:09.687Z,103501.06
2023-02-09T23:16:39.993Z,103499.34
2023-02-09T23:19:12.888Z,103501.06
2023-02-09T23:21:42.264Z,103503.78
2023-02-09T23:24:10.256Z,103494.97
2023-02-09T23:26:37.972Z,103489.78
2023-02-09T23:29:09.520Z,103496.78
2023-02-09T23:31:36.856Z,103488.03
2023-02-09T23:34:04.206Z,103488.88
2023-02-09T23:36:33.520Z,103484.50
2023-02-09T23:39:05.496Z,103489.88
2023-02-09T23:41:33.361Z,103494.34
2023-02-09T23:44:01.070Z,103506.59
2023-02-09T23:46:29.531Z,103504.06
2023-02-09T23:48:57.302Z,103505.78
2023-02-09T23:51:29.666Z,103501.41
2023-02-09T23:53:59.591Z,103498.78
2023-02-09T23:56:28.116Z,103500.50
2023-02-09T23:58:55.999Z,103507.50
